MAPA DE AEROPUERTO

INFORMACIÓN METAR y TAF


Deprecated: The each() function is deprecated. This message will be suppressed on further calls in /home/customer/www/clickair-va.com/public_html/VAM/vam/helpers/get_metar.php on line 20
METAR FOR LEVD
ADDS - METARS form results

(0452 UTC 25 May 2022)
Data provider http://aviationweather.gov/metar/data/
 
METAR text: LEVD 250430Z AUTO 35003KT CAVOK 03/01 Q1021
Conditions at: LEVD (VALLADOLID(MIL/C, ES) observed 0430 UTC 25 May 2022
Temperature: 3.0°C (37°F)
Dewpoint: 1.0°C (34°F) [RH = 87%]
Pressure (altimeter): 30.15 inches Hg (1021.0 mb)
Winds: from the N (350 degrees) at 3 MPH (3 knots; 1.5 m/s)
Visibility: 6 or more miles (10+ km)
Ceiling: ceiling and visibility are OK
Clouds: unknown
Weather: no significant weather observed at this time

METAR text: LEVD 250400Z AUTO 01004KT CAVOK 03/01 Q1021
Conditions at: LEVD (VALLADOLID(MIL/C, ES) observed 0400 UTC 25 May 2022
Temperature: 3.0°C (37°F)
Dewpoint: 1.0°C (34°F) [RH = 87%]
Pressure (altimeter): 30.15 inches Hg (1021.0 mb)
Winds: from the N (10 degrees) at 5 MPH (4 knots; 2.1 m/s)
Visibility: 6 or more miles (10+ km)
Ceiling: ceiling and visibility are OK
Clouds: unknown
Weather: no significant weather observed at this time

Forecast for: LEVD (VALLADOLID(MIL/C, ES)
Text: TAF LEVD 250200Z 2503/2603 VRB05KT 9999 FEW030 TX21/2515Z TN02/2505Z
Forecast period: 0300 to 1100 UTC 25 May 2022
Forecast type: FROM: standard forecast or significant change
Winds: variable direction winds at 6 MPH (5 knots; 2.6 m/s)
Visibility: 6 or more miles (10+ km)
Ceiling: at least 12,000 feet AGL
Clouds: few clouds at 3000 feet AGL
Weather: no significant weather forecast for this period
Text: BECMG 2511/2513 03010KT
Forecast period: 1100 UTC 25 May 2022 to 0300 UTC 26 May 2022
Forecast type: BECOMING: Conditions expected to become as follows by 1300 UTC 25 May 2022
Winds: from the NNE (30 degrees) at 12 MPH (10 knots; 5.1 m/s)
Visibility: 6 or more miles (10+ km)
Ceiling: at least 12,000 feet AGL
Clouds: few clouds at 3000 feet AGL
Weather: no significant weather forecast for this period